createdAt,value
2023-05-19T00:02:27.631Z,5.47
2023-05-19T00:05:03.047Z,8.10
2023-05-19T00:07:39.184Z,9.37
2023-05-19T00:10:15.604Z,10.80
2023-05-19T00:12:51.881Z,13.33
2023-05-19T00:15:28.334Z,9.23
2023-05-19T00:18:02.074Z,8.17
2023-05-19T00:20:35.467Z,5.83
2023-05-19T00:23:08.769Z,7.53
2023-05-19T00:25:42.690Z,7.93
2023-05-19T00:28:16.133Z,7.07
2023-05-19T00:30:49.710Z,7.07
2023-05-19T00:33:23.140Z,7.60
2023-05-19T00:35:56.452Z,6.53
2023-05-19T00:38:29.732Z,9.40
2023-05-19T00:41:04.317Z,8.67
2023-05-19T00:43:37.676Z,8.17
2023-05-19T00:46:11.778Z,7.17
2023-05-19T00:48:45.644Z,7.57
2023-05-19T00:51:20.763Z,5.67
2023-05-19T00:53:54.205Z,8.80
2023-05-19T00:56:27.901Z,6.03
2023-05-19T00:59:01.819Z,8.83
2023-05-19T01:01:35.243Z,7.77
2023-05-19T01:04:10.528Z,8.80
2023-05-19T01:06:44.686Z,10.00
2023-05-19T01:09:18.409Z,10.97
2023-05-19T01:11:51.429Z,6.47
2023-05-19T01:14:25.855Z,10.00
2023-05-19T01:17:09.903Z,6.57
2023-05-19T01:20:06.577Z,8.47
2023-05-19T01:23:28.803Z,6.57
2023-05-19T01:26:27.957Z,8.77
2023-05-19T01:29:29.090Z,8.00
2023-05-19T01:32:05.857Z,9.70
2023-05-19T01:34:43.639Z,8.80
2023-05-19T01:37:18.736Z,9.03
2023-05-19T01:39:53.557Z,7.33
2023-05-19T01:42:28.297Z,8.43
2023-05-19T01:45:02.644Z,9.70
2023-05-19T01:47:38.197Z,7.40
2023-05-19T01:50:14.553Z,12.00
2023-05-19T01:52:48.067Z,6.17
2023-05-19T01:55:23.244Z,9.00
2023-05-19T01:58:14.578Z,10.57
2023-05-19T02:01:04.866Z,9.60
2023-05-19T02:04:04.980Z,12.33
2023-05-19T02:06:47.290Z,9.37
2023-05-19T02:09:24.651Z,9.43
2023-05-19T02:12:05.461Z,8.43
2023-05-19T02:14:46.394Z,8.73
2023-05-19T02:17:21.513Z,10.47
2023-05-19T02:19:54.565Z,8.07
2023-05-19T02:22:27.964Z,9.20
2023-05-19T02:25:01.417Z,8.17
2023-05-19T02:27:35.064Z,7.13
2023-05-19T02:30:10.254Z,7.57
2023-05-19T02:32:46.867Z,9.13
2023-05-19T02:35:21.027Z,8.10
2023-05-19T02:37:55.105Z,10.40
2023-05-19T02:40:28.586Z,6.43
2023-05-19T02:43:01.979Z,7.43
2023-05-19T02:45:35.246Z,7.93
2023-05-19T02:48:09.756Z,10.00
2023-05-19T02:50:43.007Z,8.50
2023-05-19T02:53:16.302Z,7.43
2023-05-19T02:55:49.693Z,6.80
2023-05-19T02:58:22.984Z,13.13
2023-05-19T03:00:56.275Z,8.07
2023-05-19T03:03:29.683Z,10.00
2023-05-19T03:06:03.074Z,11.40
2023-05-19T03:08:36.628Z,9.80
2023-05-19T03:11:10.325Z,11.47
2023-05-19T03:13:43.587Z,11.67
2023-05-19T03:16:16.888Z,9.43
2023-05-19T03:18:51.260Z,8.70
2023-05-19T03:21:24.625Z,10.17
2023-05-19T03:23:58.045Z,10.63
2023-05-19T03:26:31.512Z,8.20
2023-05-19T03:29:05.103Z,12.67
2023-05-19T03:31:38.406Z,9.00
2023-05-19T03:34:11.658Z,10.97
2023-05-19T03:36:45.059Z,9.17
2023-05-19T03:39:18.714Z,9.07
2023-05-19T03:41:52.019Z,7.30
2023-05-19T03:44:25.279Z,11.23
2023-05-19T03:46:58.615Z,9.73
2023-05-19T03:49:31.959Z,6.20
2023-05-19T03:52:05.291Z,10.40
2023-05-19T03:54:39.945Z,9.67
2023-05-19T03:57:14.993Z,8.43
2023-05-19T03:59:48.514Z,7.27
2023-05-19T04:02:21.940Z,7.67
2023-05-19T04:04:55.983Z,9.77
2023-05-19T04:07:29.374Z,13.13
2023-05-19T04:10:03.424Z,11.70
2023-05-19T04:12:37.132Z,7.53
2023-05-19T04:15:14.490Z,10.50
2023-05-19T04:17:48.545Z,9.47
2023-05-19T04:20:22.080Z,8.43
2023-05-19T04:22:55.096Z,12.63
2023-05-19T04:25:28.429Z,8.87
2023-05-19T04:28:03.002Z,12.80
2023-05-19T04:30:37.016Z,7.97
2023-05-19T04:33:10.816Z,11.73
2023-05-19T04:35:44.389Z,9.17
2023-05-19T04:38:18.881Z,8.30
2023-05-19T04:40:52.473Z,10.97
2023-05-19T04:43:27.265Z,10.97
2023-05-19T04:46:02.034Z,11.53
2023-05-19T04:48:35.399Z,13.90
2023-05-19T04:51:09.298Z,10.63
2023-05-19T04:53:42.290Z,7.80
2023-05-19T04:56:15.724Z,11.70
2023-05-19T04:58:49.402Z,7.77
2023-05-19T05:01:25.884Z,11.23
2023-05-19T05:04:02.238Z,8.80
2023-05-19T05:06:38.308Z,11.17
2023-05-19T05:09:11.509Z,12.13
2023-05-19T05:11:47.978Z,9.43
2023-05-19T05:14:23.438Z,12.73
2023-05-19T05:16:57.913Z,8.70
2023-05-19T05:19:33.549Z,10.13
2023-05-19T05:22:08.729Z,11.93
2023-05-19T05:24:42.399Z,10.40
2023-05-19T05:27:15.731Z,11.17
2023-05-19T05:29:49.805Z,11.53
2023-05-19T05:32:25.729Z,11.43
2023-05-19T05:34:59.460Z,9.27
2023-05-19T05:37:33.380Z,11.43
2023-05-19T05:40:08.011Z,12.20
2023-05-19T05:42:41.355Z,12.00
2023-05-19T05:45:16.760Z,9.63
2023-05-19T05:47:53.395Z,9.27
2023-05-19T05:50:29.280Z,10.30
2023-05-19T05:53:04.637Z,10.60
2023-05-19T05:55:39.956Z,9.63
2023-05-19T05:58:15.514Z,8.90
2023-05-19T06:00:49.263Z,8.30
2023-05-19T06:03:24.404Z,10.07
2023-05-19T06:05:58.146Z,10.60
2023-05-19T06:08:31.837Z,9.00
2023-05-19T06:11:08.382Z,7.90
2023-05-19T06:13:42.382Z,8.17
2023-05-19T06:16:15.721Z,6.40
2023-05-19T06:18:49.267Z,8.97
2023-05-19T06:21:22.769Z,11.53
2023-05-19T06:23:56.356Z,8.30
2023-05-19T06:26:29.455Z,10.53
2023-05-19T06:29:02.767Z,9.93
2023-05-19T06:31:36.064Z,7.03
2023-05-19T06:34:12.270Z,9.87
2023-05-19T06:36:45.964Z,10.23
2023-05-19T06:39:19.254Z,10.17
2023-05-19T06:41:52.544Z,6.63
2023-05-19T06:44:26.015Z,8.60
2023-05-19T06:46:59.301Z,8.00
2023-05-19T06:49:32.918Z,8.20
2023-05-19T06:52:06.653Z,6.37
2023-05-19T06:54:39.964Z,7.20
2023-05-19T06:57:13.077Z,8.90
2023-05-19T06:59:46.707Z,7.77
2023-05-19T07:02:19.999Z,10.37
2023-05-19T07:04:53.991Z,11.87
2023-05-19T07:07:27.733Z,10.37
2023-05-19T07:10:01.308Z,8.17
2023-05-19T07:12:34.475Z,8.53
2023-05-19T07:15:09.963Z,7.90
2023-05-19T07:17:43.433Z,8.87
2023-05-19T07:20:17.940Z,9.33
2023-05-19T07:22:51.228Z,8.47
2023-05-19T07:25:26.048Z,5.97
2023-05-19T07:27:59.059Z,6.27
2023-05-19T07:30:33.615Z,10.33
2023-05-19T07:33:08.248Z,5.63
2023-05-19T07:35:41.704Z,7.50
2023-05-19T07:38:15.012Z,7.20
2023-05-19T07:40:48.283Z,9.37
2023-05-19T07:43:21.883Z,8.57
2023-05-19T07:45:56.393Z,8.37
2023-05-19T07:48:30.248Z,5.53
2023-05-19T07:51:03.538Z,9.83
2023-05-19T07:53:36.883Z,6.70
2023-05-19T07:56:10.649Z,9.80
2023-05-19T07:58:43.660Z,6.70
2023-05-19T08:01:17.037Z,7.93
2023-05-19T08:03:50.475Z,6.83
2023-05-19T08:06:25.204Z,6.80
2023-05-19T08:08:58.851Z,8.57
2023-05-19T08:11:32.169Z,6.73
2023-05-19T08:14:05.232Z,8.53
2023-05-19T08:16:38.730Z,8.73
2023-05-19T08:19:12.484Z,8.43
2023-05-19T08:21:45.817Z,7.83
2023-05-19T08:24:19.182Z,8.73
2023-05-19T08:26:52.451Z,5.47
2023-05-19T08:29:25.582Z,8.53
2023-05-19T08:31:59.402Z,9.67
2023-05-19T08:34:33.231Z,8.50
2023-05-19T08:37:07.033Z,5.67
2023-05-19T08:39:40.739Z,7.10
2023-05-19T08:42:14.242Z,6.53
2023-05-19T08:44:47.495Z,7.47
2023-05-19T08:47:20.911Z,7.30
2023-05-19T08:50:04.959Z,6.87
2023-05-19T08:52:57.807Z,5.63
2023-05-19T08:55:42.907Z,7.73
2023-05-19T08:58:20.336Z,5.43
2023-05-19T09:00:54.665Z,6.90
2023-05-19T09:03:29.369Z,5.30
2023-05-19T09:06:05.095Z,5.97
2023-05-19T09:08:38.461Z,8.10
2023-05-19T09:11:13.130Z,8.50
2023-05-19T09:13:46.987Z,8.00
2023-05-19T09:16:20.902Z,6.87
2023-05-19T09:19:01.623Z,4.23
2023-05-19T09:21:37.440Z,9.73
2023-05-19T09:24:12.812Z,7.00
2023-05-19T09:26:46.705Z,8.20
2023-05-19T09:29:21.326Z,7.23
2023-05-19T09:32:00.619Z,10.23
2023-05-19T09:34:34.510Z,8.87
2023-05-19T09:37:08.091Z,6.13
2023-05-19T09:39:41.745Z,7.50
2023-05-19T09:42:17.097Z,4.80
2023-05-19T09:44:51.585Z,9.37
2023-05-19T09:47:25.476Z,7.27
2023-05-19T09:49:59.844Z,7.33
2023-05-19T09:52:35.781Z,4.33
2023-05-19T09:55:12.940Z,6.30
2023-05-19T09:57:48.000Z,5.77
2023-05-19T10:00:24.562Z,4.33
2023-05-19T10:02:59.544Z,5.87
2023-05-19T10:05:35.479Z,5.20
2023-05-19T10:08:12.958Z,6.43
2023-05-19T10:10:49.318Z,8.37
2023-05-19T10:13:25.051Z,6.10
2023-05-19T10:16:00.299Z,6.33
2023-05-19T10:18:39.111Z,5.87
2023-05-19T10:21:14.898Z,4.60
2023-05-19T10:23:48.186Z,4.13
2023-05-19T10:26:23.663Z,5.00
2023-05-19T10:28:59.549Z,4.23
2023-05-19T10:31:35.070Z,3.83
2023-05-19T10:34:34.469Z,3.20
2023-05-19T10:37:20.583Z,4.53
2023-05-19T10:39:56.585Z,3.23
2023-05-19T10:42:46.825Z,4.47
2023-05-19T10:45:28.113Z,3.57
2023-05-19T10:48:01.920Z,2.47
2023-05-19T10:50:44.335Z,7.17
2023-05-19T10:53:23.099Z,5.27
2023-05-19T10:56:03.467Z,2.97
2023-05-19T10:58:59.014Z,3.20
2023-05-19T11:01:39.448Z,3.20
2023-05-19T11:04:15.939Z,4.00
2023-05-19T11:06:57.811Z,3.17
2023-05-19T11:09:40.053Z,3.27
2023-05-19T11:12:12.888Z,2.67
2023-05-19T11:14:46.275Z,3.13
2023-05-19T11:17:23.717Z,5.87
2023-05-19T11:20:04.582Z,5.37
2023-05-19T11:22:41.072Z,4.67
2023-05-19T11:25:19.128Z,3.73
2023-05-19T11:27:53.569Z,3.60
2023-05-19T11:30:27.327Z,5.37
2023-05-19T11:33:01.051Z,4.63
2023-05-19T11:35:37.440Z,4.97
2023-05-19T11:38:11.992Z,3.23
2023-05-19T11:40:49.707Z,3.70
2023-05-19T11:43:26.511Z,3.00
2023-05-19T11:46:00.866Z,3.07
2023-05-19T11:48:35.931Z,3.13
2023-05-19T11:51:11.648Z,4.27
2023-05-19T11:53:46.100Z,2.53
2023-05-19T11:56:19.356Z,3.40
2023-05-19T11:58:55.983Z,2.37
2023-05-19T12:01:31.902Z,4.43
2023-05-19T12:04:09.053Z,6.60
2023-05-19T12:06:42.397Z,3.73
2023-05-19T12:09:16.264Z,2.50
2023-05-19T12:11:50.729Z,5.33
2023-05-19T12:14:24.492Z,2.57
2023-05-19T12:16:58.197Z,2.93
2023-05-19T12:19:31.786Z,3.90
2023-05-19T12:22:06.199Z,4.10
2023-05-19T12:24:40.109Z,3.20
2023-05-19T12:27:19.386Z,2.67
2023-05-19T12:29:58.165Z,2.80
2023-05-19T12:32:34.461Z,4.23
2023-05-19T12:35:10.056Z,2.40
2023-05-19T12:37:49.095Z,2.80
2023-05-19T12:40:22.567Z,3.17
2023-05-19T12:42:59.763Z,3.27
2023-05-19T12:45:37.479Z,3.10
2023-05-19T12:48:17.019Z,2.77
2023-05-19T12:50:52.808Z,3.47
2023-05-19T12:53:29.581Z,3.07
2023-05-19T12:56:10.993Z,4.03
2023-05-19T12:58:45.891Z,2.50
2023-05-19T13:01:24.114Z,4.30
2023-05-19T13:03:58.029Z,4.50
2023-05-19T13:06:32.769Z,3.47
2023-05-19T13:09:07.182Z,8.03
2023-05-19T13:11:40.587Z,2.93
2023-05-19T13:14:17.132Z,3.03
2023-05-19T13:16:51.259Z,4.20
2023-05-19T13:19:26.205Z,4.57
2023-05-19T13:21:59.839Z,3.13
2023-05-19T13:24:33.410Z,2.80
2023-05-19T13:27:06.678Z,2.43
2023-05-19T13:29:41.443Z,3.87
2023-05-19T13:32:14.854Z,6.97
2023-05-19T13:34:48.940Z,3.23
2023-05-19T13:37:22.776Z,2.77
2023-05-19T13:39:57.652Z,3.33
2023-05-19T13:42:30.945Z,4.15
2023-05-19T13:45:04.437Z,2.33
2023-05-19T13:47:38.218Z,2.00
2023-05-19T13:50:13.759Z,2.77
2023-05-19T13:52:47.452Z,4.70
2023-05-19T13:55:21.391Z,3.87
2023-05-19T13:57:54.436Z,2.30
2023-05-19T14:00:28.433Z,4.10
2023-05-19T14:03:01.974Z,3.27
2023-05-19T14:05:35.811Z,2.57
2023-05-19T14:08:11.323Z,3.93
2023-05-19T14:10:44.683Z,4.10
2023-05-19T14:13:32.639Z,5.03
2023-05-19T14:16:09.772Z,4.83
2023-05-19T14:18:43.386Z,3.30
2023-05-19T14:21:16.746Z,2.07
2023-05-19T14:23:50.138Z,3.08
2023-05-19T14:26:24.829Z,3.40
2023-05-19T14:28:58.380Z,3.03
2023-05-19T14:31:33.663Z,4.90
2023-05-19T14:34:06.965Z,3.63
2023-05-19T14:36:40.337Z,3.70
2023-05-19T14:39:13.754Z,3.00
2023-05-19T14:41:47.161Z,2.70
2023-05-19T14:44:20.214Z,2.30
2023-05-19T14:46:53.506Z,3.00
2023-05-19T14:49:27.120Z,2.83
2023-05-19T14:52:00.458Z,5.00
2023-05-19T14:54:33.822Z,4.47
2023-05-19T14:57:08.074Z,4.87
2023-05-19T14:59:43.325Z,4.13
2023-05-19T15:02:16.618Z,3.80
2023-05-19T15:04:49.965Z,9.73
2023-05-19T15:07:24.577Z,3.80
2023-05-19T15:09:58.318Z,5.07
2023-05-19T15:12:31.711Z,2.63
2023-05-19T15:15:05.097Z,3.50
2023-05-19T15:17:38.424Z,5.03
2023-05-19T15:20:15.149Z,2.67
2023-05-19T15:22:48.545Z,3.77
2023-05-19T15:25:21.866Z,4.77
2023-05-19T15:27:55.379Z,3.17
2023-05-19T15:30:29.174Z,3.93
2023-05-19T15:33:02.506Z,4.40
2023-05-19T15:35:35.851Z,8.23
2023-05-19T15:38:09.166Z,12.03
2023-05-19T15:40:44.487Z,6.27
2023-05-19T15:43:17.901Z,4.20
2023-05-19T15:45:54.901Z,5.37
2023-05-19T15:48:29.006Z,3.63
2023-05-19T15:51:02.767Z,2.50
2023-05-19T15:53:36.356Z,4.53
2023-05-19T15:56:10.728Z,5.60
2023-05-19T15:58:44.235Z,2.10
2023-05-19T16:01:17.669Z,3.27
2023-05-19T16:03:51.599Z,5.93
2023-05-19T16:06:27.566Z,4.17
2023-05-19T16:09:01.231Z,1.97
2023-05-19T16:11:34.958Z,2.17
2023-05-19T16:14:08.176Z,3.13
2023-05-19T16:16:41.301Z,5.30
2023-05-19T16:19:14.941Z,2.17
2023-05-19T16:21:48.604Z,4.17
2023-05-19T16:24:22.122Z,3.73
2023-05-19T16:26:55.454Z,8.13
2023-05-19T16:29:28.793Z,4.43
2023-05-19T16:32:01.860Z,2.47
2023-05-19T16:34:35.583Z,4.83
2023-05-19T16:37:10.018Z,3.63
2023-05-19T16:39:43.734Z,2.67
2023-05-19T16:42:17.064Z,3.83
2023-05-19T16:44:50.351Z,2.57
2023-05-19T16:47:23.376Z,1.80
2023-05-19T16:49:56.751Z,3.37
2023-05-19T16:52:30.145Z,3.30
2023-05-19T16:55:03.535Z,2.93
2023-05-19T16:57:36.874Z,1.87
2023-05-19T17:00:14.276Z,2.60
2023-05-19T17:02:47.834Z,2.13
2023-05-19T17:05:21.250Z,3.07
2023-05-19T17:07:54.657Z,2.53
2023-05-19T17:10:28.104Z,4.60
2023-05-19T17:13:01.377Z,2.53
2023-05-19T17:15:34.935Z,3.33
2023-05-19T17:18:08.007Z,4.70
2023-05-19T17:20:41.646Z,3.00
2023-05-19T17:23:15.125Z,3.67
2023-05-19T17:25:48.496Z,5.27
2023-05-19T17:28:22.800Z,2.23
2023-05-19T17:30:56.106Z,3.00
2023-05-19T17:33:29.379Z,2.63
2023-05-19T17:36:05.326Z,2.60
2023-05-19T17:38:40.409Z,2.80
2023-05-19T17:41:14.280Z,3.47
2023-05-19T17:43:48.430Z,4.13
2023-05-19T17:46:21.747Z,3.27
2023-05-19T17:48:55.554Z,4.30
2023-05-19T17:51:32.080Z,3.00
2023-05-19T17:54:08.558Z,3.73
2023-05-19T17:56:48.234Z,3.83
2023-05-19T17:59:22.829Z,2.23
2023-05-19T18:01:58.236Z,3.47
2023-05-19T18:04:33.543Z,4.23
2023-05-19T18:07:09.985Z,2.90
2023-05-19T18:09:51.930Z,4.00
2023-05-19T18:12:25.356Z,2.60
2023-05-19T18:14:58.675Z,3.87
2023-05-19T18:17:31.971Z,2.10
2023-05-19T18:20:05.295Z,3.17
2023-05-19T18:22:38.670Z,4.37
2023-05-19T18:25:14.359Z,3.77
2023-05-19T18:27:48.016Z,3.83
2023-05-19T18:30:21.979Z,5.00
2023-05-19T18:32:55.402Z,2.30
2023-05-19T18:35:28.434Z,3.93
2023-05-19T18:38:02.403Z,1.60
2023-05-19T18:40:35.955Z,3.13
2023-05-19T18:43:09.481Z,3.43
2023-05-19T18:45:43.241Z,2.73
2023-05-19T18:48:16.537Z,2.43
2023-05-19T18:50:49.817Z,2.70
2023-05-19T18:53:23.662Z,1.87
2023-05-19T18:55:57.019Z,2.20
2023-05-19T18:58:30.415Z,3.33
2023-05-19T19:01:03.724Z,3.17
2023-05-19T19:03:37.040Z,3.20
2023-05-19T19:06:10.986Z,2.33
2023-05-19T19:08:44.651Z,3.23
2023-05-19T19:11:18.120Z,3.57
2023-05-19T19:13:55.364Z,1.80
2023-05-19T19:16:29.058Z,3.00
2023-05-19T19:19:02.407Z,1.83
2023-05-19T19:21:35.638Z,2.60
2023-05-19T19:24:10.118Z,5.23
2023-05-19T19:26:43.468Z,3.53
2023-05-19T19:29:18.144Z,2.03
2023-05-19T19:31:51.775Z,3.37
2023-05-19T19:34:25.079Z,4.33
2023-05-19T19:36:58.170Z,3.50
2023-05-19T19:39:31.464Z,2.50
2023-05-19T19:42:04.956Z,4.40
2023-05-19T19:44:38.360Z,3.30
2023-05-19T19:47:11.979Z,2.33
2023-05-19T19:49:46.082Z,2.10
2023-05-19T19:52:20.302Z,3.20
2023-05-19T19:54:53.642Z,3.53
2023-05-19T19:57:29.123Z,3.90
2023-05-19T20:00:08.289Z,2.20
2023-05-19T20:02:55.833Z,3.50
2023-05-19T20:05:38.013Z,2.20
2023-05-19T20:08:11.497Z,4.17
2023-05-19T20:10:46.763Z,2.97
2023-05-19T20:13:20.702Z,2.97
2023-05-19T20:15:54.061Z,2.53
2023-05-19T20:18:29.632Z,2.20
2023-05-19T20:21:02.994Z,3.60
2023-05-19T20:23:38.782Z,2.20
2023-05-19T20:26:13.392Z,3.97
2023-05-19T20:28:47.164Z,1.93
2023-05-19T20:31:21.400Z,2.17
2023-05-19T20:33:54.751Z,3.97
2023-05-19T20:36:28.135Z,2.77
2023-05-19T20:39:01.296Z,2.40
2023-05-19T20:41:34.541Z,4.57
2023-05-19T20:44:08.476Z,3.17
2023-05-19T20:46:42.130Z,2.43
2023-05-19T20:49:15.552Z,3.97
2023-05-19T20:51:48.974Z,3.20
2023-05-19T20:54:22.180Z,3.40
2023-05-19T20:56:55.972Z,2.23
2023-05-19T20:59:29.293Z,2.83
2023-05-19T21:02:02.707Z,5.70
2023-05-19T21:04:37.241Z,2.70
2023-05-19T21:07:11.130Z,5.20
2023-05-19T21:09:46.515Z,4.37
2023-05-19T21:12:23.748Z,4.33
2023-05-19T21:14:57.116Z,4.20
2023-05-19T21:17:30.415Z,2.63
2023-05-19T21:20:04.140Z,5.30
2023-05-19T21:22:37.526Z,3.60
2023-05-19T21:25:12.086Z,3.67
2023-05-19T21:27:46.608Z,2.47
2023-05-19T21:30:20.286Z,2.97
2023-05-19T21:32:53.990Z,5.77
2023-05-19T21:35:27.594Z,3.83
2023-05-19T21:38:11.941Z,2.07
2023-05-19T21:40:51.666Z,2.70
2023-05-19T21:43:25.045Z,4.57
2023-05-19T21:45:58.516Z,3.10
2023-05-19T21:48:32.991Z,4.17
2023-05-19T21:51:07.305Z,2.70
2023-05-19T21:53:40.554Z,3.43
2023-05-19T21:56:14.426Z,4.80
2023-05-19T21:58:47.857Z,4.70
2023-05-19T22:01:22.215Z,3.10
2023-05-19T22:03:55.937Z,2.60
2023-05-19T22:06:29.753Z,4.37
2023-05-19T22:09:03.551Z,4.40
2023-05-19T22:11:37.350Z,4.60
2023-05-19T22:14:10.696Z,2.50
2023-05-19T22:16:44.132Z,3.07
2023-05-19T22:19:18.278Z,4.67
2023-05-19T22:21:58.437Z,2.63
2023-05-19T22:24:35.896Z,4.37
2023-05-19T22:27:10.938Z,3.10
2023-05-19T22:29:44.539Z,4.40
2023-05-19T22:32:19.394Z,3.60
2023-05-19T22:34:52.767Z,2.30
2023-05-19T22:37:28.878Z,4.50
2023-05-19T22:40:02.387Z,3.87
2023-05-19T22:42:35.371Z,4.40
2023-05-19T22:45:10.696Z,4.50
2023-05-19T22:47:44.092Z,4.17
2023-05-19T22:50:17.761Z,4.03
2023-05-19T22:52:51.047Z,3.30
2023-05-19T22:55:24.284Z,2.87
2023-05-19T22:57:57.511Z,3.53
2023-05-19T23:00:30.889Z,3.77
2023-05-19T23:03:04.658Z,3.07
2023-05-19T23:05:37.998Z,3.97
2023-05-19T23:08:12.230Z,4.33
2023-05-19T23:10:45.530Z,2.30
2023-05-19T23:13:20.065Z,2.70
2023-05-19T23:15:53.935Z,3.10
2023-05-19T23:18:27.350Z,4.43
2023-05-19T23:21:00.664Z,3.60
2023-05-19T23:23:35.855Z,3.63
2023-05-19T23:26:09.145Z,3.20
2023-05-19T23:28:42.665Z,2.80
2023-05-19T23:31:15.976Z,3.87
2023-05-19T23:33:49.429Z,2.60
2023-05-19T23:36:23.429Z,4.53
2023-05-19T23:38:56.696Z,5.63
2023-05-19T23:41:29.941Z,4.17
2023-05-19T23:44:03.159Z,3.90
2023-05-19T23:46:36.523Z,6.03
2023-05-19T23:49:10.198Z,3.30
2023-05-19T23:51:43.499Z,2.83
2023-05-19T23:54:16.741Z,4.13
2023-05-19T23:56:50.014Z,3.63
2023-05-19T23:59:23.215Z,3.23
